Time;durP1;ratioP1;P1;durP2;ratioP2;P2;SDS_P1;SDS_P2;PMS_P1;PMS_P2;Temp;Humidity;BMP_temperature;BMP_pressure;BME280_temperature;BME280_humidity;BME280_pressure;Samples;Min_cycle;Max_cycle;Signal;HPM_P1;HPM_P2
2022/04/30 00:00:40;;;;;;;16.63;10.30;;;10.70;99.90;;;;;;485283;245;28621;-69
2022/04/30 00:02:41;;;;;;;13.50;9.00;;;10.70;99.90;;;;;;485323;244;28141;-70
2022/04/30 00:04:42;;;;;;;12.90;9.20;;;10.70;99.90;;;;;;485313;245;28043;-71
2022/04/30 00:06:43;;;;;;;9.57;7.60;;;10.70;99.90;;;;;;485300;245;28045;-71
2022/04/30 00:08:45;;;;;;;12.67;8.20;;;10.60;99.90;;;;;;485388;245;28075;-71
2022/04/30 00:10:46;;;;;;;13.47;8.10;;;10.70;99.90;;;;;;485301;245;28164;-70
2022/04/30 00:12:47;;;;;;;9.00;7.30;;;10.70;99.90;;;;;;485331;245;28163;-71
2022/04/30 00:14:48;;;;;;;8.83;7.70;;;10.60;99.90;;;;;;485332;245;28179;-72
2022/04/30 00:16:50;;;;;;;11.87;8.10;;;10.70;99.90;;;;;;485341;245;28220;-71
2022/04/30 00:18:51;;;;;;;11.17;7.63;;;10.60;99.90;;;;;;485334;245;28621;-74
2022/04/30 00:20:52;;;;;;;9.03;6.93;;;10.60;99.90;;;;;;485330;245;28481;-70
2022/04/30 00:22:53;;;;;;;13.93;7.23;;;10.60;99.90;;;;;;485334;245;28266;-71
2022/04/30 00:24:55;;;;;;;9.67;7.83;;;10.60;99.90;;;;;;485335;245;28092;-70
2022/04/30 00:26:56;;;;;;;13.77;8.27;;;10.60;99.90;;;;;;485308;245;28270;-70
2022/04/30 00:28:57;;;;;;;10.80;7.90;;;10.60;99.90;;;;;;485317;245;28257;-71
2022/04/30 00:30:59;;;;;;;13.70;8.67;;;10.50;99.90;;;;;;485331;245;27977;-70
2022/04/30 00:33:00;;;;;;;12.10;9.13;;;10.50;99.90;;;;;;485310;245;28001;-71
2022/04/30 00:35:03;;;;;;;11.83;8.43;;;10.50;99.90;;;;;;485318;241;28191;-70
2022/04/30 00:37:05;;;;;;;16.03;10.80;;;10.40;99.90;;;;;;485239;245;28443;-70
2022/04/30 00:39:07;;;;;;;13.57;9.73;;;10.40;99.90;;;;;;485326;244;28103;-70
2022/04/30 00:41:08;;;;;;;16.10;9.70;;;10.40;99.90;;;;;;485334;245;28123;-71
2022/04/30 00:43:09;;;;;;;17.43;11.30;;;10.30;99.90;;;;;;485354;245;28464;-70
2022/04/30 00:45:10;;;;;;;15.93;11.00;;;10.30;99.90;;;;;;485339;244;28525;-71
2022/04/30 00:47:12;;;;;;;16.00;10.23;;;10.30;99.90;;;;;;485347;244;28007;-73
2022/04/30 00:49:13;;;;;;;14.47;9.70;;;10.30;99.90;;;;;;485344;244;27979;-71
2022/04/30 00:51:14;;;;;;;18.00;9.77;;;10.20;99.90;;;;;;485356;245;28101;-71
2022/04/30 00:53:17;;;;;;;16.87;9.97;;;10.20;99.90;;;;;;485333;245;27755;-70
2022/04/30 00:55:17;;;;;;;12.33;8.80;;;10.30;99.90;;;;;;485184;245;27885;-71
2022/04/30 00:57:18;;;;;;;13.30;9.57;;;10.20;99.90;;;;;;485326;245;28177;-72
2022/04/30 00:59:19;;;;;;;16.63;10.20;;;10.20;99.90;;;;;;485284;245;28444;-71
2022/04/30 01:01:21;;;;;;;18.50;10.90;;;10.20;99.90;;;;;;485346;244;28138;-71
2022/04/30 01:03:22;;;;;;;14.90;10.03;;;10.10;99.90;;;;;;485353;244;28554;-71
2022/04/30 01:05:24;;;;;;;15.30;10.57;;;10.10;99.90;;;;;;485383;244;28447;-72
2022/04/30 01:07:25;;;;;;;18.07;9.90;;;10.00;99.90;;;;;;485260;244;27752;-71
2022/04/30 01:09:28;;;;;;;16.43;10.43;;;10.00;99.90;;;;;;485239;244;28640;-73
2022/04/30 01:11:29;;;;;;;13.97;10.10;;;10.00;99.90;;;;;;485286;244;28494;-71
2022/04/30 01:13:29;;;;;;;15.20;9.90;;;10.10;99.90;;;;;;485331;245;27939;-71
2022/04/30 01:15:30;;;;;;;13.30;9.17;;;10.10;99.90;;;;;;485352;245;28048;-72
2022/04/30 01:17:32;;;;;;;14.10;9.73;;;10.10;99.90;;;;;;485313;245;27963;-71
2022/04/30 01:19:34;;;;;;;12.43;9.00;;;10.10;99.90;;;;;;485355;245;27941;-72
2022/04/30 01:21:34;;;;;;;11.30;9.27;;;10.10;99.90;;;;;;485333;245;27937;-70
2022/04/30 01:23:35;;;;;;;13.77;8.70;;;10.00;99.90;;;;;;485344;245;28085;-70
2022/04/30 01:25:37;;;;;;;13.97;9.40;;;10.00;99.90;;;;;;485360;245;28008;-75
2022/04/30 01:27:38;;;;;;;18.47;11.20;;;10.00;99.90;;;;;;485339;245;28418;-70
2022/04/30 01:29:39;;;;;;;18.10;10.73;;;9.90;99.90;;;;;;485329;244;28662;-71
2022/04/30 01:38:40;;;;;;;15.87;11.43;;;9.70;99.90;;;;;;485335;245;27888;-70
2022/04/30 01:40:40;;;;;;;16.90;11.73;;;9.70;99.90;;;;;;485318;244;28273;-70
2022/04/30 01:42:41;;;;;;;21.00;12.07;;;9.70;99.90;;;;;;485361;244;28351;-70
2022/04/30 01:44:46;;;;;;;19.27;11.93;;;9.60;99.90;;;;;;485331;244;28333;-70
2022/04/30 01:46:45;;;;;;;18.40;11.00;;;9.70;99.90;;;;;;485132;245;28091;-72
2022/04/30 01:48:45;;;;;;;17.90;11.57;;;9.70;99.90;;;;;;485213;244;28010;-70
2022/04/30 01:50:46;;;;;;;16.07;10.50;;;9.70;99.90;;;;;;485361;244;27624;-70
2022/04/30 01:52:48;;;;;;;13.97;9.93;;;9.80;99.90;;;;;;485244;244;28030;-73
2022/04/30 01:54:49;;;;;;;13.47;9.43;;;9.80;99.90;;;;;;485324;245;28027;-70
2022/04/30 01:56:51;;;;;;;12.90;8.90;;;9.70;99.90;;;;;;485315;245;27773;-70
2022/04/30 01:58:52;;;;;;;13.87;9.23;;;9.80;99.90;;;;;;485318;245;27987;-69
2022/04/30 02:00:54;;;;;;;21.67;12.67;;;9.70;99.90;;;;;;485357;245;28124;-74
2022/04/30 02:02:55;;;;;;;14.73;11.27;;;9.60;99.90;;;;;;485341;244;28337;-71
2022/04/30 02:04:56;;;;;;;18.47;12.73;;;9.50;99.90;;;;;;485340;244;28368;-71
2022/04/30 02:06:59;;;;;;;16.40;10.90;;;9.50;99.90;;;;;;485334;244;28099;-70
2022/04/30 02:08:59;;;;;;;16.70;11.20;;;9.50;99.90;;;;;;485238;245;27998;-70
2022/04/30 02:11:00;;;;;;;17.90;11.03;;;9.50;99.90;;;;;;485335;244;28018;-72
2022/04/30 02:13:01;;;;;;;20.27;13.30;;;9.50;99.90;;;;;;485324;244;27956;-70
2022/04/30 02:15:04;;;;;;;22.10;12.83;;;9.40;99.90;;;;;;485324;244;28019;-70
2022/04/30 02:17:04;;;;;;;17.70;11.63;;;9.50;99.90;;;;;;485246;244;27959;-70
2022/04/30 02:19:05;;;;;;;24.30;14.23;;;9.50;99.90;;;;;;485334;244;27716;-70
2022/04/30 02:21:06;;;;;;;24.53;14.00;;;9.40;99.90;;;;;;485341;244;28438;-74
2022/04/30 02:23:09;;;;;;;24.70;14.83;;;9.30;99.90;;;;;;485321;244;28330;-70
2022/04/30 02:25:09;;;;;;;18.23;12.43;;;9.30;99.90;;;;;;485137;245;28036;-70
2022/04/30 02:27:10;;;;;;;19.63;12.87;;;9.50;99.90;;;;;;485220;244;29489;-71
2022/04/30 02:29:11;;;;;;;19.73;11.33;;;9.40;99.90;;;;;;485293;244;28306;-70
2022/04/30 02:31:13;;;;;;;21.27;12.83;;;9.50;99.90;;;;;;485331;244;28217;-70
2022/04/30 02:33:15;;;;;;;23.80;14.47;;;9.40;99.90;;;;;;485271;244;28055;-70
2022/04/30 02:35:15;;;;;;;22.00;13.70;;;9.30;99.90;;;;;;485220;245;28080;-70
2022/04/30 02:37:16;;;;;;;22.37;12.93;;;9.30;99.90;;;;;;485292;244;27897;-70
2022/04/30 02:39:18;;;;;;;16.10;11.03;;;9.40;99.90;;;;;;485307;244;28021;-70
2022/04/30 02:41:21;;;;;;;13.80;11.20;;;9.40;99.90;;;;;;485343;244;28106;-70
2022/04/30 02:43:26;;;;;;;15.60;11.00;;;9.40;99.90;;;;;;485239;245;28001;-71
2022/04/30 02:45:22;;;;;;;14.77;10.17;;;9.40;99.90;;;;;;484998;245;28571;-69
2022/04/30 02:47:23;;;;;;;14.40;10.23;;;9.40;99.90;;;;;;485317;244;29148;-70
2022/04/30 02:49:25;;;;;;;15.70;11.37;;;9.40;99.90;;;;;;485349;244;28430;-70
2022/04/30 02:51:25;;;;;;;16.03;10.43;;;9.40;99.90;;;;;;485336;244;27946;-73
2022/04/30 02:53:26;;;;;;;17.90;10.40;;;9.40;99.90;;;;;;485351;244;28153;-70
2022/04/30 02:55:28;;;;;;;17.63;9.80;;;9.40;99.90;;;;;;485350;244;28099;-71
2022/04/30 02:57:29;;;;;;;14.20;9.90;;;9.40;99.90;;;;;;485349;244;27817;-70
2022/04/30 03:01:50;;;;;;;16.27;11.17;;;9.30;99.90;;;;;;485343;245;27722;-71
2022/04/30 03:03:51;;;;;;;17.60;11.20;;;9.30;99.90;;;;;;485353;244;28246;-71
2022/04/30 03:05:53;;;;;;;16.77;10.50;;;9.30;99.90;;;;;;485333;244;28356;-69
2022/04/30 03:07:53;;;;;;;14.77;10.83;;;9.30;99.90;;;;;;485346;244;28478;-74
2022/04/30 03:09:55;;;;;;;19.80;11.43;;;9.20;99.90;;;;;;485290;244;27968;-70
2022/04/30 03:11:58;;;;;;;18.53;12.03;;;9.20;99.90;;;;;;485344;244;27796;-71
2022/04/30 03:13:57;;;;;;;18.20;11.20;;;9.20;99.90;;;;;;485257;244;28005;-70
2022/04/30 03:21:41;;;;;;;14.20;9.80;;;9.20;99.90;;;;;;485314;244;28085;-70
2022/04/30 03:22:42;;;;;;;17.53;9.90;;;9.20;99.90;;;;;;485319;245;27933;-68
2022/04/30 03:24:43;;;;;;;14.77;10.60;;;9.10;99.90;;;;;;485353;245;27690;-71
2022/04/30 03:26:44;;;;;;;15.17;9.47;;;9.10;99.90;;;;;;485337;244;27635;-72
2022/04/30 03:28:47;;;;;;;13.10;9.03;;;9.10;99.90;;;;;;485323;245;28166;-70
2022/04/30 03:30:47;;;;;;;11.40;8.03;;;9.10;99.90;;;;;;485261;245;27993;-70
2022/04/30 03:32:48;;;;;;;11.50;7.60;;;9.10;99.90;;;;;;485349;245;27704;-70
2022/04/30 03:34:49;;;;;;;11.20;7.90;;;9.10;99.90;;;;;;485354;245;28044;-70
2022/04/30 03:36:51;;;;;;;9.10;6.97;;;9.10;99.90;;;;;;485345;245;28453;-72
2022/04/30 03:38:52;;;;;;;11.30;7.93;;;9.10;99.90;;;;;;485363;245;28420;-70
2022/04/30 03:40:53;;;;;;;11.33;8.73;;;9.00;99.90;;;;;;485269;245;28234;-70
2022/04/30 03:42:54;;;;;;;14.37;9.30;;;8.90;99.90;;;;;;485313;245;28800;-70
2022/04/30 03:44:56;;;;;;;13.10;8.80;;;8.90;99.90;;;;;;485364;245;27989;-70
2022/04/30 03:46:57;;;;;;;16.60;9.50;;;8.90;99.90;;;;;;485331;241;28004;-73
2022/04/30 03:49:00;;;;;;;13.87;9.73;;;8.90;99.90;;;;;;485327;245;28027;-70
2022/04/30 03:50:59;;;;;;;11.63;8.20;;;8.80;99.90;;;;;;485214;245;28094;-71
2022/04/30 03:53:01;;;;;;;13.57;8.90;;;8.90;99.90;;;;;;485308;242;27513;-70
2022/04/30 03:55:02;;;;;;;14.07;8.40;;;8.90;99.90;;;;;;485330;245;27802;-70
2022/04/30 03:57:03;;;;;;;11.97;7.90;;;8.90;99.90;;;;;;485315;245;27950;-72
2022/04/30 03:59:04;;;;;;;11.73;7.27;;;8.90;99.90;;;;;;485317;245;27929;-70
2022/04/30 04:01:06;;;;;;;10.13;7.87;;;8.90;99.90;;;;;;485283;245;27893;-70
2022/04/30 04:03:07;;;;;;;9.77;6.73;;;8.90;99.90;;;;;;485187;244;28557;-70
2022/04/30 04:05:09;;;;;;;11.60;7.63;;;8.90;99.90;;;;;;485115;245;28463;-69
2022/04/30 04:07:09;;;;;;;8.93;6.73;;;8.80;99.90;;;;;;485139;245;28489;-71
2022/04/30 04:09:11;;;;;;;10.87;6.70;;;8.90;99.90;;;;;;485246;245;28451;-70
2022/04/30 04:11:13;;;;;;;9.07;6.67;;;8.80;99.90;;;;;;485321;245;28202;-71
2022/04/30 04:17:52;;;;;;;12.67;8.40;;;8.60;99.90;;;;;;485328;244;28020;-70
2022/04/30 04:19:53;;;;;;;11.00;8.10;;;8.70;99.90;;;;;;485235;245;28459;-74
2022/04/30 04:21:56;;;;;;;11.33;7.93;;;8.70;99.90;;;;;;485271;245;27865;-70
2022/04/30 04:26:16;;;;;;;13.47;9.30;;;8.60;99.90;;;;;;485281;244;28019;-73
2022/04/30 04:28:17;;;;;;;12.67;9.03;;;8.70;99.90;;;;;;485315;244;27812;-69
2022/04/30 04:30:18;;;;;;;11.50;9.00;;;8.70;99.90;;;;;;485394;245;27890;-71
2022/04/30 04:32:19;;;;;;;10.33;8.33;;;8.70;99.90;;;;;;485378;245;28023;-71
2022/04/30 04:34:21;;;;;;;11.63;8.40;;;8.60;99.90;;;;;;485343;245;27856;-70
2022/04/30 04:36:22;;;;;;;12.90;8.13;;;8.60;99.90;;;;;;485378;245;28102;-75
2022/04/30 04:38:23;;;;;;;10.90;7.40;;;8.70;99.90;;;;;;485361;245;27961;-70
2022/04/30 04:40:24;;;;;;;10.27;7.10;;;8.70;99.90;;;;;;485361;245;28025;-69
2022/04/30 04:42:26;;;;;;;7.50;6.63;;;8.80;99.90;;;;;;485365;245;28547;-70
2022/04/30 04:44:27;;;;;;;7.40;5.90;;;8.80;99.90;;;;;;485370;245;28431;-71
2022/04/30 04:46:28;;;;;;;8.10;6.47;;;8.80;99.90;;;;;;485367;245;28417;-75
2022/04/30 04:48:29;;;;;;;7.30;5.80;;;8.80;99.90;;;;;;485381;245;28527;-70
2022/04/30 04:50:31;;;;;;;7.13;5.60;;;8.80;99.90;;;;;;485376;245;28306;-70
2022/04/30 04:52:32;;;;;;;10.13;6.03;;;8.90;99.90;;;;;;485366;245;27855;-70
2022/04/30 04:54:33;;;;;;;7.27;6.03;;;8.90;99.90;;;;;;485370;245;28169;-71
2022/04/30 04:56:34;;;;;;;7.00;5.93;;;8.90;99.90;;;;;;485388;245;27658;-71
2022/04/30 04:58:36;;;;;;;8.30;5.27;;;8.90;99.90;;;;;;485387;245;27870;-71
2022/04/30 05:00:37;;;;;;;8.20;6.10;;;9.00;99.90;;;;;;485382;245;27847;-71
2022/04/30 05:02:38;;;;;;;9.53;5.73;;;9.00;99.90;;;;;;485362;245;27752;-70
2022/04/30 05:04:39;;;;;;;10.60;6.27;;;9.10;99.90;;;;;;485351;245;27957;-71
2022/04/30 05:06:41;;;;;;;10.57;6.60;;;9.10;99.90;;;;;;485389;245;28136;-73
2022/04/30 05:08:42;;;;;;;10.03;7.30;;;9.10;99.90;;;;;;485350;245;27984;-70
2022/04/30 05:10:43;;;;;;;6.90;6.10;;;9.10;99.90;;;;;;485034;245;28119;-72
2022/04/30 05:12:46;;;;;;;6.97;5.93;;;9.10;99.90;;;;;;485315;245;28052;-70
2022/04/30 05:14:46;;;;;;;8.20;6.10;;;9.20;99.90;;;;;;485241;245;28481;-71
2022/04/30 05:16:47;;;;;;;8.07;5.53;;;9.20;99.90;;;;;;485321;245;29036;-71
2022/04/30 05:18:48;;;;;;;5.70;5.10;;;9.20;99.90;;;;;;485317;245;28038;-71
2022/04/30 05:20:49;;;;;;;6.70;4.90;;;9.20;99.90;;;;;;485341;245;28303;-70
2022/04/30 05:22:51;;;;;;;7.87;5.10;;;9.20;99.90;;;;;;485351;245;28320;-71
2022/04/30 05:24:52;;;;;;;6.20;5.60;;;9.20;99.90;;;;;;485315;245;28661;-71
2022/04/30 05:26:53;;;;;;;6.53;4.97;;;9.20;99.90;;;;;;485329;245;28123;-70
2022/04/30 05:28:54;;;;;;;6.00;5.40;;;9.20;99.90;;;;;;485306;245;27721;-71
2022/04/30 05:30:56;;;;;;;7.37;5.60;;;9.20;99.90;;;;;;485349;245;28092;-70
2022/04/30 05:32:57;;;;;;;6.43;5.40;;;9.10;99.90;;;;;;485337;244;28029;-70
2022/04/30 05:34:58;;;;;;;7.70;5.70;;;9.10;99.90;;;;;;485326;245;28133;-71
2022/04/30 05:36:59;;;;;;;6.80;5.70;;;9.20;99.90;;;;;;485338;245;28056;-70
2022/04/30 05:39:01;;;;;;;9.57;5.50;;;9.10;99.90;;;;;;485366;245;27859;-71
2022/04/30 05:41:02;;;;;;;7.87;5.73;;;9.10;99.90;;;;;;485363;245;27907;-73
2022/04/30 05:43:03;;;;;;;7.60;6.10;;;9.10;99.90;;;;;;485372;245;27854;-71
2022/04/30 05:45:06;;;;;;;16.00;7.03;;;9.10;99.90;;;;;;485320;245;28109;-71
2022/04/30 05:47:07;;;;;;;13.00;8.30;;;9.00;99.90;;;;;;485267;245;28366;-71
2022/04/30 05:49:09;;;;;;;10.97;8.30;;;9.00;99.90;;;;;;485326;245;28102;-71
2022/04/30 05:51:10;;;;;;;12.40;8.90;;;8.90;99.90;;;;;;485342;245;28330;-73
2022/04/30 05:53:11;;;;;;;13.50;9.00;;;8.90;99.90;;;;;;485364;245;28403;-70
2022/04/30 05:55:12;;;;;;;16.53;11.10;;;8.80;99.90;;;;;;485364;245;28432;-71
2022/04/30 05:57:14;;;;;;;15.07;11.30;;;8.80;99.90;;;;;;485344;244;27760;-71
2022/04/30 05:59:15;;;;;;;16.27;11.13;;;8.80;99.90;;;;;;485366;244;28043;-71
2022/04/30 06:01:16;;;;;;;15.50;10.63;;;8.80;99.90;;;;;;485355;244;27624;-72
2022/04/30 06:03:17;;;;;;;13.53;10.23;;;8.80;99.90;;;;;;485365;244;28011;-70
2022/04/30 06:05:19;;;;;;;14.63;10.70;;;8.90;99.90;;;;;;485357;244;27977;-71
2022/04/30 06:07:20;;;;;;;20.20;11.90;;;8.90;99.90;;;;;;485337;244;28359;-75
2022/04/30 06:09:21;;;;;;;16.77;11.47;;;8.80;99.90;;;;;;485360;244;27991;-71
2022/04/30 06:11:22;;;;;;;19.63;12.20;;;8.90;99.90;;;;;;485355;244;28554;-71
2022/04/30 06:13:24;;;;;;;20.77;13.03;;;8.90;99.90;;;;;;485375;244;28432;-71
2022/04/30 06:15:25;;;;;;;21.17;12.80;;;8.80;99.90;;;;;;485357;244;28012;-71
2022/04/30 06:17:26;;;;;;;16.93;11.63;;;8.80;99.90;;;;;;485351;244;27550;-71
2022/04/30 06:19:28;;;;;;;15.90;10.53;;;8.90;99.90;;;;;;485369;244;28080;-71
2022/04/30 06:21:29;;;;;;;16.80;10.70;;;9.00;99.90;;;;;;485349;244;27735;-71
2022/04/30 06:23:30;;;;;;;14.93;10.67;;;9.00;99.90;;;;;;485366;244;28008;-71
2022/04/30 06:25:31;;;;;;;14.00;10.03;;;9.00;99.90;;;;;;485368;244;28201;-71
2022/04/30 06:27:33;;;;;;;17.67;11.43;;;9.00;99.90;;;;;;485359;244;28510;-72
2022/04/30 06:29:34;;;;;;;16.03;11.17;;;9.00;99.90;;;;;;485351;244;28299;-71
2022/04/30 06:31:35;;;;;;;25.23;12.97;;;8.90;99.90;;;;;;485291;244;28338;-72
2022/04/30 06:33:36;;;;;;;20.77;13.03;;;8.80;99.90;;;;;;485333;244;28084;-71
2022/04/30 06:35:38;;;;;;;16.40;11.43;;;8.80;99.90;;;;;;485311;244;27903;-71
2022/04/30 06:37:39;;;;;;;16.90;11.37;;;9.00;99.90;;;;;;485340;244;27993;-71
2022/04/30 06:39:40;;;;;;;20.50;11.67;;;9.00;99.90;;;;;;485335;244;28099;-71
2022/04/30 06:41:41;;;;;;;22.40;13.93;;;9.00;99.90;;;;;;485327;244;28154;-71
2022/04/30 06:43:43;;;;;;;16.97;11.93;;;8.80;99.90;;;;;;485323;244;27980;-71
2022/04/30 06:45:44;;;;;;;16.80;12.03;;;8.80;99.90;;;;;;485343;244;28045;-71
2022/04/30 06:47:45;;;;;;;17.83;11.40;;;8.90;99.90;;;;;;485322;244;29315;-71
2022/04/30 06:49:46;;;;;;;14.43;10.63;;;9.00;99.90;;;;;;485342;244;28579;-71
2022/04/30 06:51:48;;;;;;;17.47;12.57;;;9.00;99.90;;;;;;485331;244;28050;-72
2022/04/30 06:58:24;;;;;;;16.37;12.47;;;8.90;99.90;;;;;;470700;251;28468;-69
2022/04/30 07:02:46;;;;;;;19.00;10.97;;;9.00;99.90;;;;;;477115;249;27796;-71
2022/04/30 07:04:51;;;;;;;15.20;10.80;;;9.10;99.90;;;;;;475096;249;27870;-71
2022/04/30 07:06:51;;;;;;;20.50;11.57;;;9.20;99.90;;;;;;476783;249;27935;-71
2022/04/30 07:08:52;;;;;;;22.67;12.33;;;9.00;99.90;;;;;;475299;249;28016;-69
2022/04/30 07:10:54;;;;;;;27.40;14.00;;;9.00;99.90;;;;;;477105;249;27780;-71
2022/04/30 07:12:55;;;;;;;18.83;12.20;;;8.90;99.90;;;;;;475307;250;27788;-71
2022/04/30 07:14:56;;;;;;;21.00;13.30;;;9.00;99.90;;;;;;477116;249;28281;-73
2022/04/30 07:16:57;;;;;;;18.37;13.00;;;9.10;99.90;;;;;;475300;249;27994;-71
2022/04/30 07:19:01;;;;;;;19.77;13.20;;;9.20;99.90;;;;;;477089;249;27605;-71
2022/04/30 07:21:00;;;;;;;21.67;14.40;;;9.10;99.90;;;;;;475259;249;27807;-71
2022/04/30 07:23:01;;;;;;;19.20;12.57;;;9.20;99.90;;;;;;477060;249;28019;-71
2022/04/30 07:25:02;;;;;;;18.77;12.37;;;9.20;99.90;;;;;;475226;250;27955;-73
2022/04/30 07:27:08;;;;;;;19.73;11.80;;;9.30;99.90;;;;;;477093;249;28060;-71
2022/04/30 07:29:08;;;;;;;19.30;12.87;;;9.30;99.90;;;;;;475259;249;27767;-71
2022/04/30 07:31:09;;;;;;;30.40;17.40;;;9.20;99.90;;;;;;477047;249;28035;-71
2022/04/30 07:33:10;;;;;;;22.87;16.13;;;8.90;99.90;;;;;;475272;249;28012;-71
2022/04/30 07:35:12;;;;;;;21.90;15.30;;;9.00;99.90;;;;;;477108;249;27924;-72
2022/04/30 07:37:13;;;;;;;25.60;14.90;;;9.10;99.90;;;;;;477337;247;27557;-72
2022/04/30 07:39:14;;;;;;;20.00;14.00;;;9.10;99.90;;;;;;482059;246;28552;-71
2022/04/30 07:41:15;;;;;;;19.50;13.20;;;9.20;99.90;;;;;;482044;246;28490;-71
2022/04/30 07:43:17;;;;;;;20.40;13.87;;;9.20;99.90;;;;;;471282;250;30373;-70
2022/04/30 07:45:18;;;;;;;18.97;14.40;;;9.30;99.90;;;;;;480237;245;27797;-71
2022/04/30 07:47:19;;;;;;;21.20;14.53;;;9.20;99.90;;;;;;482032;246;27920;-73
2022/04/30 07:49:20;;;;;;;23.00;14.40;;;9.20;99.90;;;;;;471278;250;28012;-69
2022/04/30 07:51:34;;;;;;;20.30;14.20;;;9.20;99.90;;;;;;480195;245;27996;-71
2022/04/30 07:53:35;;;;;;;15.40;11.57;;;9.20;99.90;;;;;;482022;246;28535;-69
2022/04/30 07:55:36;;;;;;;15.93;11.60;;;9.30;99.90;;;;;;471293;250;28016;-71
2022/04/30 07:57:37;;;;;;;16.57;11.20;;;9.40;99.90;;;;;;480233;245;28107;-71
2022/04/30 07:59:39;;;;;;;13.70;10.57;;;9.30;99.90;;;;;;482024;246;28009;-69
2022/04/30 08:01:40;;;;;;;15.67;11.80;;;9.40;99.90;;;;;;471278;250;27895;-71
2022/04/30 08:03:41;;;;;;;22.77;14.83;;;9.40;99.90;;;;;;480203;245;27874;-71
2022/04/30 08:05:42;;;;;;;23.47;15.73;;;9.20;99.90;;;;;;482037;246;27973;-71
2022/04/30 08:07:44;;;;;;;20.53;15.20;;;9.20;99.90;;;;;;471278;248;28526;-72
2022/04/30 08:09:45;;;;;;;23.90;14.63;;;9.30;99.90;;;;;;480211;245;27955;-71
2022/04/30 08:11:47;;;;;;;25.20;16.23;;;9.30;99.90;;;;;;482023;246;28357;-71
2022/04/30 08:13:47;;;;;;;24.10;16.90;;;9.30;99.90;;;;;;471277;250;28173;-70
2022/04/30 08:15:49;;;;;;;20.20;14.47;;;9.30;99.90;;;;;;480241;245;28011;-71
2022/04/30 08:17:50;;;;;;;22.63;15.83;;;9.40;99.90;;;;;;481979;247;27757;-72
2022/04/30 08:19:51;;;;;;;24.00;15.40;;;9.30;99.90;;;;;;471304;250;28099;-71
2022/04/30 08:21:52;;;;;;;16.93;13.63;;;9.40;99.90;;;;;;480124;245;27797;-71
2022/04/30 08:23:54;;;;;;;19.53;12.97;;;9.60;99.90;;;;;;482033;246;27858;-71
2022/04/30 08:25:55;;;;;;;19.37;14.50;;;9.60;99.90;;;;;;471283;248;28583;-72
2022/04/30 08:27:56;;;;;;;18.13;12.47;;;9.50;99.90;;;;;;480256;245;28516;-74
2022/04/30 08:29:58;;;;;;;16.87;12.93;;;9.50;99.90;;;;;;482032;246;28406;-70
2022/04/30 08:31:59;;;;;;;20.73;13.63;;;9.50;99.90;;;;;;471271;250;27923;-71
2022/04/30 08:34:00;;;;;;;20.10;14.53;;;9.40;99.90;;;;;;480215;245;28459;-73
2022/04/30 08:36:02;;;;;;;22.47;15.33;;;9.40;99.90;;;;;;482035;246;28487;-71
2022/04/30 08:38:03;;;;;;;20.07;14.00;;;9.50;99.90;;;;;;472915;250;28387;-71
2022/04/30 08:40:04;;;;;;;20.33;14.43;;;9.60;99.90;;;;;;475374;250;27858;-71
2022/04/30 08:42:06;;;;;;;23.33;16.10;;;9.60;99.90;;;;;;475368;250;27700;-71
2022/04/30 08:44:07;;;;;;;19.10;14.40;;;9.60;99.90;;;;;;475358;250;27962;-73
2022/04/30 08:46:08;;;;;;;23.00;16.77;;;9.70;99.90;;;;;;475361;250;27907;-70
2022/04/30 08:48:09;;;;;;;20.57;14.60;;;9.60;99.90;;;;;;475368;250;27974;-73
2022/04/30 08:50:10;;;;;;;21.33;15.23;;;9.70;99.90;;;;;;475352;250;27801;-72
2022/04/30 08:52:13;;;;;;;20.63;15.83;;;9.60;99.90;;;;;;475369;249;28479;-71
2022/04/30 08:54:13;;;;;;;21.83;15.10;;;9.50;99.90;;;;;;475354;250;28655;-74
2022/04/30 08:56:14;;;;;;;17.97;14.17;;;9.60;99.90;;;;;;475349;250;28522;-70
2022/04/30 08:58:16;;;;;;;20.60;13.67;;;9.80;99.90;;;;;;475354;250;28050;-72
2022/04/30 09:00:17;;;;;;;17.13;13.20;;;9.80;99.90;;;;;;475369;250;28123;-71
2022/04/30 09:02:18;;;;;;;15.93;11.87;;;9.90;99.90;;;;;;475375;250;27923;-71
2022/04/30 09:04:19;;;;;;;18.10;13.87;;;9.90;99.90;;;;;;475393;250;28173;-71
2022/04/30 09:06:20;;;;;;;18.23;13.67;;;9.80;99.90;;;;;;475388;250;28092;-71
2022/04/30 09:08:22;;;;;;;19.53;14.70;;;9.80;99.90;;;;;;475384;250;27865;-71
2022/04/30 09:10:23;;;;;;;18.37;14.00;;;9.80;99.90;;;;;;475365;250;28414;-71
2022/04/30 09:12:24;;;;;;;16.40;12.83;;;9.90;99.90;;;;;;475355;250;28653;-71
2022/04/30 09:14:25;;;;;;;18.23;13.20;;;10.10;99.90;;;;;;475391;250;28684;-72
2022/04/30 09:16:27;;;;;;;16.93;13.50;;;10.20;99.90;;;;;;475393;250;28116;-70
2022/04/30 09:18:28;;;;;;;19.30;14.73;;;10.30;99.90;;;;;;475382;246;28193;-71
2022/04/30 09:20:33;;;;;;;20.77;14.20;;;10.20;99.90;;;;;;475384;250;28297;-70
2022/04/30 09:22:30;;;;;;;15.10;12.17;;;10.20;99.90;;;;;;475124;250;28255;-71
2022/04/30 09:24:32;;;;;;;17.90;14.30;;;10.30;99.90;;;;;;475385;246;28745;-74
2022/04/30 09:26:33;;;;;;;15.30;12.90;;;10.30;99.90;;;;;;475383;250;28811;-71
2022/04/30 09:28:36;;;;;;;17.87;13.98;;;10.30;99.90;;;;;;471905;250;36869;-72
2022/04/30 09:30:35;;;;;;;20.90;16.67;;;9.90;99.90;;;;;;475362;250;27051;-70
2022/04/30 09:32:37;;;;;;;22.33;15.07;;;9.80;99.90;;;;;;475396;250;28024;-72
2022/04/30 09:39:17;;;;;;;17.23;13.33;;;10.00;99.90;;;;;;478041;246;28464;-69
2022/04/30 09:41:18;;;;;;;16.20;12.43;;;10.10;99.90;;;;;;481051;247;28815;-71
2022/04/30 09:43:21;;;;;;;20.03;12.00;;;10.00;99.90;;;;;;481042;247;28259;-71
2022/04/30 09:45:20;;;;;;;13.43;10.80;;;10.10;99.90;;;;;;480946;247;28351;-73
2022/04/30 09:47:23;;;;;;;13.83;11.70;;;10.30;99.90;;;;;;481046;247;28101;-71
2022/04/30 09:54:05;;;;;;;19.17;13.17;;;10.20;99.90;;;;;;481089;246;28253;-71
2022/04/30 09:56:05;;;;;;;16.27;12.53;;;10.10;99.90;;;;;;480950;247;28315;-70
2022/04/30 09:58:07;;;;;;;16.50;12.03;;;10.20;99.90;;;;;;481015;246;28140;-71
2022/04/30 10:00:08;;;;;;;15.30;12.07;;;10.10;99.90;;;;;;480952;247;28182;-68
2022/04/30 10:02:08;;;;;;;18.27;12.30;;;10.10;99.90;;;;;;481030;247;28352;-72
2022/04/30 10:04:09;;;;;;;14.17;11.73;;;10.00;99.90;;;;;;481069;247;28242;-72
2022/04/30 10:06:12;;;;;;;21.60;12.67;;;10.00;99.90;;;;;;481084;247;28342;-71
2022/04/30 10:08:13;;;;;;;18.53;12.07;;;10.20;99.90;;;;;;481057;247;28234;-71
2022/04/30 10:10:14;;;;;;;15.83;11.53;;;10.10;99.90;;;;;;481027;247;28632;-70
2022/04/30 10:12:15;;;;;;;13.37;10.47;;;10.20;99.90;;;;;;481047;247;28367;-73
2022/04/30 10:14:17;;;;;;;14.83;10.43;;;10.40;99.90;;;;;;481047;247;28671;-69
2022/04/30 10:16:18;;;;;;;13.70;10.57;;;10.30;99.90;;;;;;481027;247;28493;-71
2022/04/30 10:18:23;;;;;;;18.33;13.57;;;10.30;99.90;;;;;;481016;247;28279;-71
2022/04/30 10:20:22;;;;;;;16.33;12.33;;;10.10;99.90;;;;;;480807;247;28202;-71
2022/04/30 10:22:22;;;;;;;14.93;11.30;;;10.20;99.90;;;;;;480995;246;28229;-73
2022/04/30 10:24:23;;;;;;;15.70;11.80;;;10.30;99.90;;;;;;480998;247;28099;-70
2022/04/30 10:26:24;;;;;;;15.80;11.53;;;10.20;99.90;;;;;;480948;247;28851;-71
2022/04/30 10:28:25;;;;;;;12.20;9.67;;;10.20;99.90;;;;;;480976;247;27885;-71
2022/04/30 10:30:27;;;;;;;12.17;9.73;;;10.30;99.90;;;;;;481027;246;28088;-71
2022/04/30 10:32:28;;;;;;;17.63;12.10;;;10.40;99.90;;;;;;481012;247;28249;-72
2022/04/30 10:34:33;;;;;;;17.70;13.53;;;10.30;99.90;;;;;;481016;247;28146;-71
2022/04/30 10:36:30;;;;;;;14.57;11.70;;;10.20;99.90;;;;;;466834;250;28156;-70
2022/04/30 10:38:32;;;;;;;15.33;11.20;;;10.40;99.90;;;;;;475384;250;29274;-74
2022/04/30 10:40:33;;;;;;;16.33;12.07;;;10.40;99.90;;;;;;480929;246;28538;-71
2022/04/30 10:42:35;;;;;;;14.03;11.00;;;10.40;99.90;;;;;;485452;245;28172;-72
2022/04/30 10:44:38;;;;;;;15.87;11.63;;;10.30;99.90;;;;;;484539;245;28127;-71
2022/04/30 10:46:38;;;;;;;13.50;9.90;;;10.30;99.90;;;;;;484372;245;28735;-70
2022/04/30 10:48:39;;;;;;;13.53;10.60;;;10.40;99.90;;;;;;485377;245;29104;-71
2022/04/30 10:50:40;;;;;;;12.70;9.50;;;10.40;99.90;;;;;;466954;254;28227;-73
2022/04/30 10:52:42;;;;;;;13.10;9.80;;;10.60;99.90;;;;;;485433;245;28224;-71
2022/04/30 10:54:43;;;;;;;12.97;9.33;;;10.80;99.90;;;;;;466982;254;28279;-73
2022/04/30 10:56:44;;;;;;;11.13;9.10;;;10.80;99.90;;;;;;481018;247;28227;-71
2022/04/30 10:58:45;;;;;;;9.93;8.07;;;10.80;99.90;;;;;;485458;240;28204;-71
2022/04/30 11:00:47;;;;;;;13.20;10.23;;;10.90;99.90;;;;;;467012;255;28632;-71